Time;durP1;ratioP1;P1;durP2;ratioP2;P2;SDS_P1;SDS_P2;PMS_P1;PMS_P2;Temp;Humidity;BMP_temperature;BMP_pressure;BME280_temperature;BME280_humidity;BME280_pressure;Samples;Min_cycle;Max_cycle;Signal;HPM_P1;HPM_P2
2021/06/11 00:00:22;;;;;;;4.90;4.20;;;;;;;23.36;43.58;100149.50;5036017;28;20060;-83
2021/06/11 00:02:56;;;;;;;5.18;4.65;;;;;;;23.30;44.04;100148.25;5035945;28;20075;-83
2021/06/11 00:05:24;;;;;;;5.00;4.60;;;;;;;23.28;43.96;100147.56;5035202;28;20045;-83
2021/06/11 00:07:50;;;;;;;4.43;4.03;;;;;;;23.25;43.95;100146.03;5035485;28;20049;-83
2021/06/11 00:10:18;;;;;;;6.93;4.05;;;;;;;23.21;44.33;100139.31;5053223;28;20059;-83
2021/06/11 00:12:48;;;;;;;5.20;4.40;;;;;;;23.17;45.09;100149.53;5035804;28;20408;-83
2021/06/11 00:15:15;;;;;;;6.30;4.68;;;;;;;23.16;44.56;100147.00;5035034;28;20049;-83
2021/06/11 00:17:47;;;;;;;4.68;4.22;;;;;;;23.09;45.08;100146.81;5035390;28;20049;-83
2021/06/11 00:20:15;;;;;;;4.70;4.23;;;;;;;23.08;44.34;100149.66;5035574;28;20140;-83
2021/06/11 00:22:41;;;;;;;5.43;4.55;;;;;;;23.01;44.38;100142.25;5035561;28;20477;-83
2021/06/11 00:25:12;;;;;;;5.78;4.38;;;;;;;22.95;45.06;100142.03;5035196;28;20045;-83
2021/06/11 00:27:39;;;;;;;7.35;4.97;;;;;;;22.89;44.66;100144.38;5035294;28;20049;-83
2021/06/11 00:30:07;;;;;;;4.82;4.32;;;;;;;22.83;44.61;100141.47;5035446;28;20057;-83
2021/06/11 00:32:38;;;;;;;6.32;5.22;;;;;;;22.74;45.39;100141.44;5035063;28;20049;-83
2021/06/11 00:35:07;;;;;;;8.77;6.10;;;;;;;22.70;45.39;100134.69;5035184;28;20049;-83
2021/06/11 00:37:33;;;;;;;6.53;5.28;;;;;;;22.65;45.69;100136.97;5035779;28;20493;-83
2021/06/11 00:40:01;;;;;;;7.40;6.63;;;;;;;22.62;45.67;100131.97;5035331;28;20052;-83
2021/06/11 00:42:28;;;;;;;6.95;6.03;;;;;;;22.58;46.01;100130.59;5035298;28;20052;-83
2021/06/11 00:44:54;;;;;;;7.65;6.25;;;;;;;22.55;46.25;100137.09;5034961;28;20053;-83
2021/06/11 00:47:21;;;;;;;7.63;6.57;;;;;;;22.54;46.34;100137.22;5035078;28;20055;-83
2021/06/11 00:49:48;;;;;;;7.85;6.57;;;;;;;22.51;46.33;100125.78;5035460;28;20053;-83
2021/06/11 00:52:16;;;;;;;8.23;6.97;;;;;;;22.49;46.64;100126.97;5035470;28;20056;-83
2021/06/11 00:54:44;;;;;;;7.85;6.68;;;;;;;22.45;46.63;100126.44;5052759;28;20490;-83
2021/06/11 00:57:12;;;;;;;11.07;7.10;;;;;;;22.43;46.61;100122.22;5035193;28;20091;-83
2021/06/11 00:59:41;;;;;;;7.47;6.68;;;;;;;22.38;47.24;100126.22;5035012;28;20063;-83
2021/06/11 01:02:09;;;;;;;12.10;7.25;;;;;;;22.36;47.04;100125.53;5034869;28;20052;-83
2021/06/11 01:04:36;;;;;;;8.82;6.82;;;;;;;22.33;47.36;100122.31;5034539;28;20055;-83
2021/06/11 01:07:06;;;;;;;7.47;6.68;;;;;;;22.30;47.54;100119.94;5037066;28;20048;-83
2021/06/11 01:09:36;;;;;;;7.15;6.40;;;;;;;22.28;47.23;100119.25;5038384;28;20053;-83
2021/06/11 01:12:07;;;;;;;7.47;6.78;;;;;;;22.26;47.95;100114.91;5038606;28;20057;-83
2021/06/11 01:14:52;;;;;;;9.90;7.35;;;;;;;22.20;47.54;100114.69;5056151;28;20057;-83
2021/06/11 01:17:18;;;;;;;8.32;7.03;;;;;;;22.21;47.29;100113.69;5038765;28;20397;-83
2021/06/11 01:19:50;;;;;;;9.85;6.97;;;;;;;22.16;48.09;100108.78;5038350;28;20060;-83
2021/06/11 01:22:37;;;;;;;7.82;6.68;;;;;;;22.12;47.92;100113.63;5038429;28;20075;-83
2021/06/11 01:25:09;;;;;;;8.48;6.88;;;;;;;22.11;48.45;100121.81;5055107;28;20052;-83
2021/06/11 01:27:40;;;;;;;8.40;6.68;;;;;;;22.08;48.13;100122.09;5038051;28;20059;-83
2021/06/11 01:30:10;;;;;;;8.07;7.13;;;;;;;22.06;47.85;100124.09;5038017;28;20059;-83
2021/06/11 01:32:39;;;;;;;8.77;6.68;;;;;;;22.04;47.98;100118.03;5037957;28;20053;-83
2021/06/11 01:35:12;;;;;;;13.60;6.93;;;;;;;22.01;48.43;100113.84;5037408;28;20052;-83
2021/06/11 01:37:41;;;;;;;7.45;6.72;;;;;;;21.99;47.99;100116.66;5038028;28;20059;-83
2021/06/11 01:40:10;;;;;;;7.35;6.55;;;;;;;21.99;47.95;100118.53;5056122;28;20378;-83
2021/06/11 01:42:46;;;;;;;10.02;7.18;;;;;;;21.94;48.70;100118.97;5037911;28;20405;-83
2021/06/11 01:45:13;;;;;;;7.13;6.38;;;;;;;21.95;48.03;100114.47;5017449;28;20049;-83
2021/06/11 01:47:49;;;;;;;7.80;6.60;;;;;;;21.91;48.79;100119.31;5017778;28;20140;-83
2021/06/11 01:50:26;;;;;;;7.10;6.28;;;;;;;21.89;48.77;100115.06;5017936;28;20059;-83
2021/06/11 01:52:55;;;;;;;7.03;6.25;;;;;;;21.89;48.21;100118.59;5032066;28;20382;-83
2021/06/11 01:55:22;;;;;;;8.10;7.05;;;;;;;21.89;48.30;100110.56;5037056;28;20052;-83
2021/06/11 01:57:49;;;;;;;6.13;5.53;;;;;;;21.87;48.01;100117.91;5055071;28;20482;-83
2021/06/11 02:00:17;;;;;;;8.00;6.50;;;;;;;21.83;48.00;100122.72;5037152;28;20073;-83
2021/06/11 02:02:50;;;;;;;7.57;6.78;;;;;;;21.78;48.79;100124.16;5026123;28;20103;-83
2021/06/11 02:05:18;;;;;;;7.10;6.00;;;;;;;21.77;48.14;100125.16;5016981;28;20053;-83
2021/06/11 02:07:47;;;;;;;7.53;6.43;;;;;;;21.70;48.50;100139.16;5017258;28;20071;-83
2021/06/11 02:10:17;;;;;;;11.07;6.38;;;;;;;21.65;48.86;100133.41;5017263;28;20057;-83
2021/06/11 02:12:45;;;;;;;9.73;7.05;;;;;;;21.60;48.37;100133.84;5029131;28;20049;-83
2021/06/11 02:15:13;;;;;;;8.38;6.60;;;;;;;21.55;48.56;100124.56;5036895;28;20053;-83
2021/06/11 02:17:44;;;;;;;8.88;6.72;;;;;;;21.48;49.08;100130.53;5036400;28;20056;-83
2021/06/11 02:20:13;;;;;;;8.93;7.18;;;;;;;21.43;48.96;100124.81;5037660;28;20049;-83
2021/06/11 02:22:43;;;;;;;9.00;6.80;;;;;;;21.40;48.65;100125.09;5026088;28;20057;-82
2021/06/11 02:25:13;;;;;;;8.05;6.60;;;;;;;21.34;49.67;100121.16;5017037;28;20054;-83
2021/06/11 02:27:41;;;;;;;9.13;8.13;;;;;;;21.33;49.14;100115.97;5034758;28;20395;-83
2021/06/11 02:30:13;;;;;;;8.07;6.85;;;;;;;21.29;49.43;100119.91;5034686;28;20059;-83
2021/06/11 02:32:43;;;;;;;7.40;6.68;;;;;;;21.24;49.63;100117.72;5028391;28;20063;-83
2021/06/11 02:35:13;;;;;;;8.70;6.40;;;;;;;21.21;49.62;100112.66;5036978;28;20059;-83
2021/06/11 02:37:40;;;;;;;7.72;6.93;;;;;;;21.19;49.51;100107.44;5037416;28;20466;-83
2021/06/11 02:40:09;;;;;;;9.48;7.50;;;;;;;21.14;49.98;100107.03;5037066;28;20111;-83
2021/06/11 02:42:37;;;;;;;8.65;7.75;;;;;;;21.12;49.76;100114.34;5026325;28;20057;-83
2021/06/11 02:45:11;;;;;;;11.57;7.20;;;;;;;21.07;50.46;100111.28;5015928;28;20140;-83
2021/06/11 02:47:43;;;;;;;11.50;7.57;;;;;;;21.08;50.03;100107.63;5016589;28;20049;-83
2021/06/11 02:50:17;;;;;;;9.05;7.53;;;;;;;21.04;50.41;100100.91;5017246;28;20075;-83
2021/06/11 02:52:47;;;;;;;9.77;7.50;;;;;;;21.05;50.17;100113.28;5017532;28;20057;-83
2021/06/11 02:55:23;;;;;;;8.25;7.45;;;;;;;21.01;50.68;100107.38;5017038;28;20057;-83
2021/06/11 02:57:57;;;;;;;9.18;7.68;;;;;;;21.01;50.76;100103.88;5017162;28;20049;-83
2021/06/11 03:00:29;;;;;;;9.15;8.00;;;;;;;21.00;51.09;100104.84;5014417;28;20049;-83
2021/06/11 03:03:34;;;;;;;8.37;7.57;;;;;;;20.94;50.41;100096.41;5017114;28;20064;-83
2021/06/11 03:06:03;;;;;;;7.40;6.32;;;;;;;20.98;50.36;100094.31;4954098;28;20407;-84
2021/06/11 03:08:35;;;;;;;9.68;7.68;;;;;;;20.96;51.29;100089.09;4961150;28;20060;-83
2021/06/11 03:11:07;;;;;;;12.27;8.68;;;;;;;20.97;51.59;100092.59;5016603;28;20064;-83
2021/06/11 03:13:35;;;;;;;17.52;8.73;;;;;;;20.95;51.22;100087.41;5016441;28;20054;-83
2021/06/11 03:16:08;;;;;;;9.30;8.30;;;;;;;20.92;51.73;100092.19;5032876;28;20051;-83
2021/06/11 03:18:43;;;;;;;9.38;8.48;;;;;;;20.91;52.05;100091.38;5036669;28;20049;-83
2021/06/11 03:21:21;;;;;;;9.60;8.60;;;;;;;20.89;51.86;100085.31;5036364;28;20055;-83
2021/06/11 03:24:09;;;;;;;9.85;8.70;;;;;;;20.86;51.46;100088.22;5035828;28;20055;-83
2021/06/11 03:27:01;;;;;;;10.40;8.15;;;;;;;20.86;51.46;100095.44;5016291;28;20055;-83
2021/06/11 03:29:44;;;;;;;7.70;6.25;;;;;;;20.84;51.17;100095.56;5016534;28;20060;-83
2021/06/11 03:32:27;;;;;;;10.37;7.50;;;;;;;20.85;51.89;100097.25;5016423;28;20061;-83
2021/06/11 03:34:55;;;;;;;;;;;;;;;20.85;49.90;100093.75;5023739;28;20132;-83
2021/06/11 03:37:24;;;;;;;12.50;7.93;;;;;;;20.88;50.79;100093.47;5036353;28;20287;-83
2021/06/11 03:39:58;;;;;;;9.25;8.30;;;;;;;20.82;52.04;100092.22;5036126;28;20409;-83
2021/06/11 03:42:28;;;;;;;10.48;7.47;;;;;;;20.82;51.65;100092.22;5035821;28;20052;-83
2021/06/11 03:44:58;;;;;;;11.35;8.80;;;;;;;20.80;51.90;100089.69;5035409;28;20052;-83
2021/06/11 03:47:33;;;;;;;8.85;7.95;;;;;;;20.79;52.37;100092.50;5035764;28;20044;-83
2021/06/11 03:50:01;;;;;;;10.10;8.15;;;;;;;20.80;51.80;100084.34;5035821;28;20049;-83
2021/06/11 03:52:31;;;;;;;8.55;7.65;;;;;;;20.81;52.02;100082.50;5035699;28;20049;-83
2021/06/11 03:55:12;;;;;;;9.10;8.18;;;;;;;20.79;52.54;100071.09;5035344;28;20053;-83
2021/06/11 03:57:41;;;;;;;8.70;7.10;;;;;;;20.84;51.82;100074.19;5035992;28;20401;-83
2021/06/11 04:00:08;;;;;;;12.00;8.32;;;;;;;20.84;52.11;100071.50;5035499;28;20052;-83
2021/06/11 04:02:46;;;;;;;9.68;7.75;;;;;;;20.82;51.99;100070.81;5053505;28;20489;-83
2021/06/11 04:05:18;;;;;;;8.50;7.43;;;;;;;20.83;51.71;100067.97;5035181;28;20052;-84
2021/06/11 04:07:52;;;;;;;8.45;7.55;;;;;;;20.84;52.10;100076.84;5035469;28;20084;-84
2021/06/11 04:10:49;;;;;;;10.45;6.60;;;;;;;20.85;51.61;100069.69;5035887;28;20056;-84
2021/06/11 04:13:19;;;;;;;9.77;7.72;;;;;;;20.89;52.06;100071.09;5035501;28;20057;-83
2021/06/11 04:15:51;;;;;;;8.07;7.18;;;;;;;20.90;52.13;100073.59;5035363;28;20386;-83
2021/06/11 04:18:32;;;;;;;6.47;5.73;;;;;;;20.89;52.03;100077.28;5035396;28;20049;-83
2021/06/11 04:21:00;;;;;;;11.90;6.88;;;;;;;20.96;51.83;100066.81;5035533;28;20061;-83
2021/06/11 04:23:32;;;;;;;8.30;7.38;;;;;;;20.98;52.17;100066.69;5035405;28;20055;-84
2021/06/11 04:26:03;;;;;;;10.00;7.82;;;;;;;21.02;52.88;100070.75;5034867;28;20051;-84
2021/06/11 04:28:33;;;;;;;10.02;7.25;;;;;;;21.05;52.34;100059.75;5035544;28;20049;-84
2021/06/11 04:31:00;;;;;;;7.80;7.03;;;;;;;21.08;52.14;100062.13;5035576;28;20049;-84
2021/06/11 04:33:36;;;;;;;10.73;7.50;;;;;;;21.11;51.76;100074.38;5035542;28;20095;-84
2021/06/11 04:36:03;;;;;;;9.05;8.05;;;;;;;21.15;51.51;100071.25;5034660;28;20055;-84
2021/06/11 04:38:42;;;;;;;10.07;9.07;;;;;;;21.16;51.05;100075.59;5035084;28;20071;-84
2021/06/11 04:41:10;;;;;;;10.63;9.40;;;;;;;21.21;50.86;100072.50;5053814;28;20059;-84
2021/06/11 04:43:37;;;;;;;11.68;9.10;;;;;;;21.24;50.63;100074.03;5038821;28;20087;-84
2021/06/11 04:46:03;;;;;;;9.02;8.15;;;;;;;21.27;50.67;100071.06;5038250;28;20048;-84
2021/06/11 04:48:30;;;;;;;9.57;8.45;;;;;;;21.31;50.60;100077.78;5038791;28;20055;-84
2021/06/11 04:50:58;;;;;;;9.65;8.30;;;;;;;21.36;50.77;100072.81;5038760;28;20057;-84
2021/06/11 04:53:25;;;;;;;9.20;7.57;;;;;;;21.40;50.59;100086.75;5038826;28;20079;-84
2021/06/11 04:55:57;;;;;;;9.40;7.80;;;;;;;21.44;50.82;100086.31;5038571;28;20048;-84
2021/06/11 04:58:26;;;;;;;10.48;9.15;;;;;;;21.52;51.14;100092.75;5038979;28;20390;-84
2021/06/11 05:00:53;;;;;;;11.60;9.05;;;;;;;21.57;50.62;100085.09;5038495;28;20143;-84
2021/06/11 05:03:20;;;;;;;15.13;9.32;;;;;;;21.62;50.66;100093.53;5038486;28;20060;-84
2021/06/11 05:05:48;;;;;;;8.38;7.60;;;;;;;21.68;50.43;100086.72;5037964;28;20052;-84
2021/06/11 05:08:15;;;;;;;13.27;8.30;;;;;;;21.74;50.29;100088.81;5038666;28;20079;-84
2021/06/11 05:10:41;;;;;;;9.43;8.10;;;;;;;21.80;50.33;100084.69;5038522;28;20401;-84
2021/06/11 05:13:09;;;;;;;9.55;8.55;;;;;;;21.87;50.46;100091.13;5038119;28;20053;-84
2021/06/11 05:15:36;;;;;;;10.63;7.82;;;;;;;21.93;50.19;100090.50;5037884;28;20057;-84
2021/06/11 05:18:05;;;;;;;10.57;8.00;;;;;;;21.99;49.98;100089.03;5038423;28;20180;-84
2021/06/11 05:20:34;;;;;;;12.63;7.40;;;;;;;22.07;49.87;100091.78;5056362;28;20053;-84
2021/06/11 05:23:00;;;;;;;9.15;6.90;;;;;;;22.15;49.34;100092.84;5038628;28;20404;-84
2021/06/11 05:25:37;;;;;;;10.25;8.55;;;;;;;22.19;48.95;100095.06;5055391;28;20080;-84
2021/06/11 05:28:04;;;;;;;11.50;7.82;;;;;;;22.29;48.90;100096.81;5038148;28;20059;-84
2021/06/11 05:30:31;;;;;;;13.20;7.78;;;;;;;22.34;48.88;100098.03;5037848;28;20049;-84
2021/06/11 05:33:01;;;;;;;13.85;8.05;;;;;;;22.40;49.08;100104.63;5037943;28;20065;-84
2021/06/11 05:35:28;;;;;;;10.40;8.50;;;;;;;22.46;48.80;100103.97;5037266;28;20124;-84
2021/06/11 05:37:58;;;;;;;9.98;8.70;;;;;;;22.50;48.59;100102.66;5037878;28;20061;-84
2021/06/11 05:40:29;;;;;;;13.70;7.75;;;;;;;22.53;48.55;100109.56;5038098;28;20549;-84
2021/06/11 05:42:55;;;;;;;11.90;7.75;;;;;;;22.58;48.83;100115.31;5038094;28;20057;-84
2021/06/11 05:45:22;;;;;;;12.18;7.97;;;;;;;22.63;48.47;100110.34;5037189;28;20060;-84
2021/06/11 05:47:50;;;;;;;9.90;7.32;;;;;;;22.67;48.35;100108.16;5037869;28;20071;-84
2021/06/11 05:50:17;;;;;;;8.52;7.22;;;;;;;22.70;48.32;100107.00;5037665;28;20049;-84
2021/06/11 05:52:44;;;;;;;9.43;7.20;;;;;;;22.73;48.22;100106.69;5036469;28;20059;-84
2021/06/11 05:55:14;;;;;;;9.27;7.13;;;;;;;22.77;48.56;100113.44;5037223;28;20063;-84
2021/06/11 05:57:41;;;;;;;12.48;7.63;;;;;;;22.80;48.22;100114.97;5037525;28;20057;-84
2021/06/11 06:00:09;;;;;;;15.65;8.82;;;;;;;22.84;48.18;100116.31;5037553;28;20053;-84
2021/06/11 06:02:38;;;;;;;12.18;6.97;;;;;;;22.86;48.36;100117.00;5037521;28;20064;-84
2021/06/11 06:05:06;;;;;;;9.63;7.75;;;;;;;22.90;47.95;100113.00;5054728;28;20064;-83
2021/06/11 06:07:37;;;;;;;8.20;7.30;;;;;;;22.93;47.94;100109.13;5037473;28;20053;-84
2021/06/11 06:10:04;;;;;;;8.43;7.22;;;;;;;22.97;47.47;100107.81;5037559;28;20060;-84
2021/06/11 06:12:34;;;;;;;11.18;7.05;;;;;;;22.99;48.05;100100.47;5037922;28;20049;-84
2021/06/11 06:15:01;;;;;;;11.35;7.53;;;;;;;23.04;47.70;100108.88;5037340;28;20534;-84
2021/06/11 06:17:34;;;;;;;9.15;7.30;;;;;;;23.08;47.72;100109.38;5037520;28;20049;-84
2021/06/11 06:20:10;;;;;;;9.30;8.02;;;;;;;23.11;47.64;100114.44;5017674;28;20056;-84
2021/06/11 06:22:40;;;;;;;9.82;7.30;;;;;;;23.16;47.53;100107.59;5033970;28;20060;-84
2021/06/11 06:25:20;;;;;;;8.40;7.15;;;;;;;23.16;47.83;100109.41;5039021;28;20437;-85
2021/06/11 06:27:47;;;;;;;9.18;7.57;;;;;;;23.23;47.93;100107.78;5036779;28;20045;-84
2021/06/11 06:30:15;;;;;;;10.00;8.18;;;;;;;23.27;47.96;100110.97;5036679;28;20049;-84
2021/06/11 06:32:43;;;;;;;10.73;8.32;;;;;;;23.30;48.00;100111.47;5036525;28;20131;-84
2021/06/11 06:35:14;;;;;;;9.80;8.23;;;;;;;23.34;47.99;100111.19;5036847;28;20095;-84
2021/06/11 06:37:41;;;;;;;13.70;9.20;;;;;;;23.37;48.39;100113.56;5036732;28;20505;-84
2021/06/11 06:40:08;;;;;;;12.38;9.43;;;;;;;23.40;48.17;100110.56;5036527;28;20053;-84
2021/06/11 06:42:36;;;;;;;12.07;8.93;;;;;;;23.44;48.63;100114.59;5036935;28;20136;-84
2021/06/11 06:45:05;;;;;;;12.32;9.27;;;;;;;23.47;48.42;100114.25;5036707;28;20139;-84
2021/06/11 06:47:34;;;;;;;11.68;9.65;;;;;;;23.50;49.12;100113.94;5036752;28;20055;-84
2021/06/11 06:50:00;;;;;;;10.68;9.45;;;;;;;23.54;49.38;100115.28;5036708;28;20060;-84
2021/06/11 06:52:27;;;;;;;11.25;9.63;;;;;;;23.58;49.01;100112.28;5036724;28;20053;-84
2021/06/11 06:54:54;;;;;;;9.93;8.77;;;;;;;23.60;48.99;100108.41;5036278;28;20049;-84
2021/06/11 06:57:20;;;;;;;12.43;9.02;;;;;;;23.64;49.79;100127.72;5054315;28;20053;-84
2021/06/11 06:59:47;;;;;;;10.70;9.20;;;;;;;23.66;49.78;100118.50;5036525;28;20073;-84
2021/06/11 07:02:15;;;;;;;10.88;8.80;;;;;;;23.68;49.81;100115.66;5036840;28;20064;-84
2021/06/11 07:04:42;;;;;;;10.10;8.75;;;;;;;23.73;49.96;100123.22;5035723;28;20053;-84
2021/06/11 07:07:13;;;;;;;11.75;10.25;;;;;;;23.75;49.79;100114.00;5036395;28;20053;-84
2021/06/11 07:09:43;;;;;;;10.82;9.43;;;;;;;23.78;49.84;100116.31;5036752;28;20049;-84
2021/06/11 07:12:10;;;;;;;10.27;9.25;;;;;;;23.83;49.37;100129.28;5036347;28;20057;-84
2021/06/11 07:14:38;;;;;;;10.52;9.15;;;;;;;23.87;49.71;100129.78;5035922;28;20053;-84
2021/06/11 07:17:06;;;;;;;12.55;10.00;;;;;;;23.91;49.88;100136.50;5036370;28;20057;-84
2021/06/11 07:19:33;;;;;;;12.82;10.65;;;;;;;23.94;49.69;100134.34;5036342;28;20053;-84
2021/06/11 07:22:02;;;;;;;13.63;10.30;;;;;;;23.97;50.02;100132.31;5036205;28;20089;-84
2021/06/11 07:24:31;;;;;;;12.50;9.60;;;;;;;24.01;49.52;100144.44;5036019;28;20110;-84
2021/06/11 07:26:59;;;;;;;13.07;10.15;;;;;;;24.03;49.59;100145.94;5036242;28;20048;-84
2021/06/11 07:29:25;;;;;;;10.82;9.40;;;;;;;24.06;50.16;100145.63;5036417;28;20486;-84
2021/06/11 07:31:52;;;;;;;10.48;9.35;;;;;;;24.10;49.91;100146.16;5035964;28;20060;-84
2021/06/11 07:34:19;;;;;;;10.32;8.48;;;;;;;24.14;49.78;100141.28;5035801;28;20405;-84
2021/06/11 07:36:46;;;;;;;9.65;8.60;;;;;;;24.17;50.10;100146.31;5035983;28;20044;-84
2021/06/11 07:39:13;;;;;;;10.13;8.57;;;;;;;24.19;49.93;100144.31;5036143;28;20079;-84
2021/06/11 07:41:40;;;;;;;13.45;8.75;;;;;;;24.20;50.46;100154.06;5036109;28;20056;-84
2021/06/11 07:44:06;;;;;;;13.25;9.23;;;;;;;24.23;49.86;100155.56;5035463;28;20060;-84
2021/06/11 07:46:37;;;;;;;9.85;8.80;;;;;;;24.25;50.38;100150.88;5035981;28;20049;-85
2021/06/11 07:49:04;;;;;;;9.10;7.78;;;;;;;24.28;50.70;100156.75;5035966;28;20060;-85
2021/06/11 07:51:48;;;;;;;10.55;8.02;;;;;;;24.29;49.81;100163.81;5036167;28;20587;-85
2021/06/11 07:54:15;;;;;;;9.77;7.85;;;;;;;24.38;50.44;100158.44;5035573;28;20049;-85
2021/06/11 07:56:44;;;;;;;9.68;7.25;;;;;;;24.41;50.67;100158.09;5035888;28;20053;-85
2021/06/11 07:59:12;;;;;;;9.82;8.07;;;;;;;24.47;49.99;100162.78;5035991;28;20436;-85
2021/06/11 08:01:39;;;;;;;9.82;8.02;;;;;;;24.53;50.04;100162.13;5035633;28;20136;-84
2021/06/11 08:04:09;;;;;;;8.98;7.65;;;;;;;24.57;49.97;100159.94;5035359;28;20064;-84
2021/06/11 08:06:35;;;;;;;9.40;8.15;;;;;;;24.64;49.95;100168.16;5035407;28;20045;-84
2021/06/11 08:09:03;;;;;;;9.07;7.72;;;;;;;24.68;49.94;100164.97;5035865;28;20071;-84
2021/06/11 08:11:44;;;;;;;8.75;7.78;;;;;;;24.68;50.21;100164.97;5035481;28;20057;-84
2021/06/11 08:14:12;;;;;;;10.38;7.50;;;;;;;24.77;49.78;100171.19;5035281;28;20052;-85
2021/06/11 08:16:39;;;;;;;9.77;7.07;;;;;;;24.83;50.36;100180.44;5037317;28;20054;-85
2021/06/11 08:19:07;;;;;;;13.05;7.78;;;;;;;24.89;50.37;100177.06;5039636;28;20061;-85
2021/06/11 08:21:34;;;;;;;7.85;6.80;;;;;;;24.97;50.27;100173.53;5039498;28;20061;-85
2021/06/11 08:24:00;;;;;;;8.55;7.47;;;;;;;25.03;49.78;100183.59;5039053;28;20048;-84
2021/06/11 08:26:27;;;;;;;9.80;7.70;;;;;;;25.09;49.57;100177.50;5056382;28;20053;-85
2021/06/11 08:28:54;;;;;;;9.52;7.25;;;;;;;25.15;49.55;100177.88;5039177;28;20060;-84
2021/06/11 08:31:20;;;;;;;17.42;8.27;;;;;;;25.19;50.04;100177.31;5039446;28;20545;-84
2021/06/11 08:34:00;;;;;;;8.35;7.30;;;;;;;25.21;49.61;100180.69;5038944;28;20453;-84
2021/06/11 08:36:26;;;;;;;10.98;7.35;;;;;;;25.31;49.66;100169.69;5038894;28;20049;-84
2021/06/11 08:38:54;;;;;;;9.13;7.75;;;;;;;25.35;49.92;100173.72;5039495;28;20503;-85
2021/06/11 08:41:24;;;;;;;8.20;7.38;;;;;;;25.41;50.13;100176.75;5039142;28;20053;-85
2021/06/11 08:43:53;;;;;;;8.73;7.45;;;;;;;25.49;49.76;100171.34;5022625;28;20087;-85
2021/06/11 08:46:26;;;;;;;7.97;6.90;;;;;;;25.55;50.72;100180.53;5039110;28;20131;-85
2021/06/11 08:48:55;;;;;;;8.60;7.28;;;;;;;25.65;50.16;100166.88;5039044;28;20056;-85
2021/06/11 08:51:21;;;;;;;10.63;8.07;;;;;;;25.73;50.01;100177.63;5039341;28;20088;-85
2021/06/11 08:53:49;;;;;;;8.32;6.72;;;;;;;25.81;50.08;100176.72;5038440;28;20055;-84
2021/06/11 08:56:16;;;;;;;7.38;6.35;;;;;;;25.88;50.00;100165.06;5039289;28;20059;-85
2021/06/11 08:58:43;;;;;;;8.13;5.90;;;;;;;25.96;49.93;100174.97;5038863;28;20052;-85
2021/06/11 09:01:10;;;;;;;7.00;6.35;;;;;;;26.05;49.72;100175.72;5038764;28;20053;-84
2021/06/11 09:03:48;;;;;;;7.60;6.53;;;;;;;26.12;50.14;100174.00;5038950;28;20137;-85
2021/06/11 09:06:17;;;;;;;7.63;6.30;;;;;;;26.27;49.97;100174.09;5038778;28;20417;-85
2021/06/11 09:08:57;;;;;;;7.45;5.68;;;;;;;26.35;49.04;100183.16;5038661;28;20889;-85
2021/06/11 09:11:26;;;;;;;7.55;5.72;;;;;;;26.46;49.73;100180.00;5038542;28;20059;-84
2021/06/11 09:14:07;;;;;;;6.75;5.93;;;;;;;26.51;47.94;100187.56;5038896;28;20481;-84
2021/06/11 09:16:45;;;;;;;8.57;5.40;;;;;;;26.57;49.28;100176.03;5038525;28;20053;-84
2021/06/11 09:19:22;;;;;;;6.10;5.05;;;;;;;26.67;49.23;100184.72;5038275;28;20049;-84
2021/06/11 09:21:51;;;;;;;6.10;5.50;;;;;;;26.79;48.72;100181.56;5038443;28;20477;-85
2021/06/11 09:27:04;;;;;;;7.80;5.50;;;;;;;26.93;47.89;100178.06;5055503;28;20044;-85
2021/06/11 09:29:38;;;;;;;7.43;5.47;;;;;;;26.96;47.27;100176.03;5038388;28;20053;-84
2021/06/11 09:32:27;;;;;;;6.15;5.55;;;;;;;26.99;48.12;100181.88;5038501;28;20135;-85
2021/06/11 09:34:56;;;;;;;5.95;5.20;;;;;;;27.03;47.68;100177.78;5037788;28;20045;-85
2021/06/11 09:37:27;;;;;;;5.05;4.53;;;;;;;27.09;47.27;100188.91;5038248;28;20477;-85
2021/06/11 09:40:06;;;;;;;6.80;3.80;;;;;;;27.10;47.72;100180.56;5038448;28;20055;-85
2021/06/11 09:42:35;;;;;;;5.60;3.97;;;;;;;27.15;47.28;100180.88;5038041;28;20053;-85
2021/06/11 09:45:10;;;;;;;5.55;3.83;;;;;;;27.19;47.00;100170.53;5017987;28;20128;-84
2021/06/11 09:47:40;;;;;;;4.53;4.13;;;;;;;27.26;47.19;100166.06;5018063;28;20057;-85
2021/06/11 09:50:48;;;;;;;4.80;3.92;;;;;;;27.30;45.62;100161.94;5018224;28;20073;-84
2021/06/11 09:53:16;;;;;;;5.82;4.30;;;;;;;27.40;46.39;100166.22;5023332;28;20049;-84
2021/06/11 09:55:50;;;;;;;6.20;4.05;;;;;;;27.44;45.50;100170.22;5037497;28;20056;-85
2021/06/11 09:58:18;;;;;;;4.32;3.30;;;;;;;27.48;45.79;100170.69;5038028;28;20822;-85
2021/06/11 10:00:57;;;;;;;5.63;3.83;;;;;;;27.47;45.70;100171.72;5037675;28;20049;-84
2021/06/11 10:03:37;;;;;;;4.40;4.00;;;;;;;27.48;46.40;100162.56;5037352;28;20056;-85
2021/06/11 10:06:07;;;;;;;4.40;3.78;;;;;;;27.53;45.59;100170.94;5037232;28;20405;-84
2021/06/11 10:08:36;;;;;;;3.90;2.70;;;;;;;27.56;45.16;100170.56;5037089;28;20045;-84
2021/06/11 10:11:06;;;;;;;2.67;2.47;;;;;;;27.58;44.68;100163.94;5036935;28;20056;-84
2021/06/11 10:13:34;;;;;;;2.42;2.08;;;;;;;27.58;44.56;100173.91;5036904;28;20139;-85
2021/06/11 10:16:05;;;;;;;3.10;2.40;;;;;;;27.52;44.47;100158.47;5036858;28;20092;-85
2021/06/11 10:18:33;;;;;;;4.07;2.30;;;;;;;27.48;45.05;100163.41;5037160;28;20504;-84
2021/06/11 10:21:01;;;;;;;3.83;2.75;;;;;;;27.50;45.34;100161.34;5037163;28;20071;-84
2021/06/11 10:23:30;;;;;;;2.80;2.60;;;;;;;27.55;45.65;100163.50;5036937;28;20128;-84
2021/06/11 10:26:00;;;;;;;5.03;3.15;;;;;;;27.65;44.94;100149.69;5036975;28;20053;-85
2021/06/11 10:28:30;;;;;;;3.60;2.40;;;;;;;27.77;45.03;100150.03;5037482;28;20488;-85
2021/06/11 10:31:04;;;;;;;3.80;2.50;;;;;;;27.89;45.36;100151.22;5037013;28;20064;-85
2021/06/11 10:33:43;;;;;;;2.45;2.20;;;;;;;28.01;44.99;100150.69;5036931;28;20432;-85
2021/06/11 10:39:08;;;;;;;2.50;2.05;;;;;;;28.28;43.85;100149.09;5053655;28;20140;-85
2021/06/11 10:41:57;;;;;;;2.45;2.22;;;;;;;28.32;43.18;100146.81;5054688;28;20049;-85
2021/06/11 10:44:36;;;;;;;3.13;2.05;;;;;;;28.32;42.61;100153.09;5036424;28;20049;-84
2021/06/11 10:47:18;;;;;;;3.15;1.70;;;;;;;28.33;42.77;100143.09;5036687;28;20048;-85
2021/06/11 10:50:02;;;;;;;3.50;2.05;;;;;;;28.51;44.69;100144.50;5036713;28;20199;-85
2021/06/11 10:52:33;;;;;;;3.22;2.42;;;;;;;28.87;43.61;100146.19;5036754;28;20061;-85
2021/06/11 10:55:19;;;;;;;2.90;1.80;;;;;;;29.27;42.46;100151.00;5036156;28;20056;-85
2021/06/11 10:57:52;;;;;;;2.45;1.58;;;;;;;29.77;41.59;100142.66;5036384;28;20048;-85
2021/06/11 11:00:19;;;;;;;1.90;1.73;;;;;;;30.27;43.49;100141.47;5036714;28;20144;-85
2021/06/11 11:02:48;;;;;;;2.70;1.58;;;;;;;30.77;41.27;100140.19;5036907;28;20390;-85
2021/06/11 11:05:49;;;;;;;2.63;1.73;;;;;;;31.16;40.11;100142.16;5036777;28;20413;-85
2021/06/11 11:08:16;;;;;;;2.83;1.80;;;;;;;31.47;39.00;100140.59;5031171;28;20049;-85
2021/06/11 11:10:48;;;;;;;2.90;1.33;;;;;;;31.67;39.71;100128.75;5054071;28;20055;-84
2021/06/11 11:13:16;;;;;;;1.85;1.38;;;;;;;31.91;38.31;100137.25;5036651;28;20401;-85
2021/06/11 11:15:56;;;;;;;1.67;1.10;;;;;;;32.16;38.40;100133.69;5035637;28;20057;-85
2021/06/11 11:18:41;;;;;;;2.53;1.70;;;;;;;32.42;38.09;100134.50;5035692;28;20064;-84
2021/06/11 11:21:30;;;;;;;1.90;1.40;;;;;;;32.61;37.74;100136.25;5035433;28;20103;-85
2021/06/11 11:24:00;;;;;;;2.92;1.50;;;;;;;32.73;36.09;100128.16;5035622;28;20405;-85
2021/06/11 11:26:40;;;;;;;2.72;1.42;;;;;;;32.68;36.00;100130.72;5035845;28;20500;-85
2021/06/11 11:29:09;;;;;;;1.23;1.13;;;;;;;32.63;36.13;100134.13;5053478;28;20486;-84
2021/06/11 11:31:36;;;;;;;2.75;1.30;;;;;;;32.49;35.32;100135.31;5035554;28;20127;-84
2021/06/11 11:34:04;;;;;;;2.45;1.38;;;;;;;32.37;37.02;100127.84;5035451;28;20045;-86
2021/06/11 11:36:33;;;;;;;1.33;1.23;;;;;;;32.32;36.12;100129.56;5035654;28;20493;-84
2021/06/11 11:39:04;;;;;;;3.00;1.38;;;;;;;32.33;35.69;100129.34;5035303;28;20098;-85
2021/06/11 11:41:31;;;;;;;1.65;1.30;;;;;;;32.30;35.24;100121.63;5035369;28;20053;-84
2021/06/11 11:43:58;;;;;;;1.48;1.38;;;;;;;32.21;35.34;100120.22;5035120;28;20056;-85
2021/06/11 11:46:30;;;;;;;1.98;1.60;;;;;;;32.11;35.45;100120.75;5036424;28;20107;-84